createdAt,value
2017-05-10T00:48:30.068Z,0
2017-05-10T00:48:46.218Z,0
2017-05-10T00:49:46.190Z,0
2017-05-10T00:50:46.170Z,0
2017-05-10T00:51:45.849Z,0
2017-05-10T00:52:45.830Z,0
2017-05-10T00:53:46.107Z,0
2017-05-10T00:54:46.086Z,0
2017-05-10T00:55:46.058Z,0
2017-05-10T00:56:46.044Z,0
2017-05-10T00:57:46.023Z,0
2017-05-10T00:58:45.995Z,0
2017-05-10T00:59:45.974Z,0
2017-05-10T01:00:45.954Z,0
2017-05-10T01:01:45.929Z,0
2017-05-10T01:02:45.910Z,0
2017-05-10T01:03:45.923Z,0
2017-05-10T01:04:45.874Z,0
2017-05-10T01:05:45.843Z,0
2017-05-10T01:06:45.821Z,0
2017-05-10T01:07:45.805Z,0
2017-05-10T01:08:45.779Z,0
2017-05-10T01:09:45.758Z,0
2017-05-10T01:10:45.131Z,0
2017-05-10T01:11:45.407Z,0
2017-05-10T01:12:45.390Z,0
2017-05-10T01:13:45.467Z,0
2017-05-10T01:14:45.351Z,0
2017-05-10T01:15:45.625Z,0
2017-05-10T01:16:45.607Z,0
2017-05-10T01:17:45.284Z,0
2017-05-10T01:18:45.571Z,0
2017-05-10T01:19:45.539Z,0
2017-05-10T01:20:45.527Z,0
2017-05-10T01:21:45.493Z,0
2017-05-10T01:22:45.470Z,0
2017-05-10T01:23:45.459Z,0
2017-05-10T01:24:45.431Z,0
2017-05-10T01:25:45.404Z,0
2017-05-10T01:26:45.382Z,0
2017-05-10T01:27:45.365Z,0
2017-05-10T01:28:45.353Z,0
2017-05-10T01:29:45.325Z,0
2017-05-10T01:30:45.302Z,0
2017-05-10T01:31:45.277Z,0
2017-05-10T01:32:44.953Z,0
2017-05-10T01:33:45.231Z,0
2017-05-10T01:34:45.208Z,0
2017-05-10T01:35:44.886Z,0
2017-05-10T01:36:44.856Z,0
2017-05-10T01:37:44.839Z,0
2017-05-10T01:38:45.117Z,0
2017-05-10T01:39:59.712Z,0
2017-05-10T01:41:28.907Z,0
2017-05-10T01:41:59.665Z,0
2017-05-10T01:42:45.033Z,0
2017-05-10T01:43:45.007Z,0
2017-05-10T01:44:44.995Z,0
2017-05-10T01:45:44.963Z,0
2017-05-10T01:46:44.641Z,0
2017-05-10T01:47:44.924Z,0
2017-05-10T01:49:53.434Z,0
2017-05-10T01:50:53.105Z,0
2017-05-10T01:51:53.381Z,0
2017-05-10T01:52:53.362Z,0
2017-05-10T01:55:37.149Z,0
2017-05-10T01:55:53.301Z,0
2017-05-10T01:56:53.270Z,0
2017-05-10T01:58:37.082Z,0
2017-05-10T01:58:53.234Z,0
2017-05-10T01:59:53.216Z,0
2017-05-10T02:00:53.233Z,0
2017-05-10T02:01:52.863Z,0
2017-05-10T02:02:53.147Z,0
2017-05-10T02:03:52.840Z,0
2017-05-10T02:04:52.795Z,0
2017-05-10T02:05:53.074Z,0
2017-05-10T02:07:07.658Z,0
2017-05-10T02:07:53.035Z,0
2017-05-10T02:08:53.012Z,0
2017-05-10T02:09:52.992Z,0
2017-05-10T02:12:16.107Z,0
2017-05-10T02:13:15.774Z,0
2017-05-10T02:14:15.763Z,0
2017-05-10T02:15:16.071Z,0
2017-05-10T02:16:15.712Z,0
2017-05-10T02:17:15.695Z,0
2017-05-10T02:18:15.665Z,0
2017-05-10T02:19:15.947Z,0
2017-05-10T02:20:30.537Z,0
2017-05-10T02:21:15.903Z,0
2017-05-10T02:22:15.883Z,0
2017-05-10T02:23:15.557Z,0
2017-05-10T02:24:15.537Z,0
2017-05-10T02:25:15.813Z,0
2017-05-10T02:26:15.793Z,0
2017-05-10T02:27:15.472Z,0
2017-05-10T02:28:15.144Z,0
2017-05-10T02:29:15.129Z,0
2017-05-10T02:30:15.401Z,0
2017-05-10T02:31:15.687Z,0
2017-05-10T02:32:15.658Z,0
2017-05-10T02:33:15.333Z,0
2017-05-10T02:34:15.613Z,0
2017-05-10T02:35:15.593Z,0
2017-05-10T02:36:15.569Z,0
2017-05-10T02:37:15.553Z,0
2017-05-10T02:38:15.226Z,0
2017-05-10T02:39:15.204Z,0
2017-05-10T02:40:15.481Z,0
2017-05-10T02:41:15.462Z,0
2017-05-10T02:42:30.045Z,0
2017-05-10T02:43:15.417Z,0
2017-05-10T02:44:15.095Z,0
2017-05-10T02:45:15.372Z,0
2017-05-10T02:46:15.052Z,0
2017-05-10T02:47:15.334Z,0
2017-05-10T02:48:15.001Z,0
2017-05-10T02:49:15.022Z,0
2017-05-10T02:50:15.261Z,0
2017-05-10T02:51:14.937Z,0
2017-05-10T02:52:14.920Z,0
2017-05-10T02:53:15.238Z,0
2017-05-10T02:54:15.174Z,0
2017-05-10T02:55:44.371Z,0
2017-05-10T02:56:14.826Z,0
2017-05-10T02:57:14.813Z,0
2017-05-10T02:58:15.088Z,0
2017-05-10T02:59:14.763Z,0
2017-05-10T03:00:15.043Z,0
2017-05-10T03:01:14.418Z,0
2017-05-10T03:02:15.002Z,0
2017-05-10T03:03:14.980Z,0
2017-05-10T03:04:14.659Z,0
2017-05-10T03:05:29.543Z,0
2017-05-10T03:06:14.912Z,0
2017-05-10T03:07:14.589Z,0
2017-05-10T03:08:14.562Z,0
2017-05-10T03:09:29.459Z,0
2017-05-10T03:10:14.523Z,0
2017-05-10T03:12:23.340Z,0
2017-05-10T03:13:23.313Z,0
2017-05-10T03:14:23.297Z,0
2017-05-10T03:15:23.262Z,0
2017-05-10T03:16:23.243Z,0
2017-05-10T03:17:23.225Z,0
2017-05-10T03:18:23.206Z,4
2017-05-10T03:19:23.230Z,4
2017-05-10T03:20:22.860Z,4
2017-05-10T03:21:23.137Z,4
2017-05-10T03:22:23.120Z,4
2017-05-10T03:23:23.089Z,8
2017-05-10T03:24:23.078Z,4
2017-05-10T03:25:23.053Z,8
2017-05-10T03:26:23.031Z,8
2017-05-10T03:27:23.004Z,8
2017-05-10T03:28:22.989Z,12
2017-05-10T03:29:22.970Z,16
2017-05-10T03:30:22.943Z,16
2017-05-10T03:31:22.649Z,16
2017-05-10T03:32:22.900Z,20
2017-05-10T03:33:22.885Z,24
2017-05-10T03:34:22.857Z,24
2017-05-10T03:35:22.830Z,28
2017-05-10T03:36:22.817Z,32
2017-05-10T03:37:22.798Z,36
2017-05-10T03:38:22.767Z,40
2017-05-10T03:39:22.496Z,48
2017-05-10T03:40:22.728Z,56
2017-05-10T03:41:22.739Z,60
2017-05-10T03:42:22.683Z,68
2017-05-10T03:43:22.363Z,72
2017-05-10T03:44:22.644Z,84
2017-05-10T03:45:22.627Z,92
2017-05-10T03:46:22.603Z,100
2017-05-10T03:47:22.578Z,108
2017-05-10T03:48:22.560Z,120
2017-05-10T03:49:22.535Z,132
2017-05-10T03:50:22.513Z,144
2017-05-10T03:51:22.494Z,156
2017-05-10T03:52:22.472Z,172
2017-05-10T03:53:22.452Z,184
2017-05-10T03:54:22.430Z,200
2017-05-10T03:55:22.407Z,216
2017-05-10T03:56:22.384Z,232
2017-05-10T03:57:22.366Z,248
2017-05-10T03:58:22.345Z,260
2017-05-10T03:59:22.322Z,276
2017-05-10T04:00:22.304Z,292
2017-05-10T04:01:22.283Z,308
2017-05-10T04:02:21.958Z,328
2017-05-10T04:03:22.252Z,352
2017-05-10T04:04:22.217Z,368
2017-05-10T04:05:22.197Z,392
2017-05-10T04:06:22.226Z,420
2017-05-10T04:07:22.176Z,448
2017-05-10T04:08:22.140Z,468
2017-05-10T04:09:22.155Z,492
2017-05-10T04:10:22.098Z,516
2017-05-10T04:11:21.769Z,540
2017-05-10T04:12:22.053Z,564
2017-05-10T04:13:22.034Z,584
2017-05-10T04:14:22.009Z,600
2017-05-10T04:15:21.993Z,620
2017-05-10T04:16:21.666Z,636
2017-05-10T04:17:21.943Z,660
2017-05-10T04:18:21.931Z,676
2017-05-10T04:19:21.902Z,696
2017-05-10T04:20:21.879Z,712
2017-05-10T04:21:21.860Z,732
2017-05-10T04:22:21.840Z,748
2017-05-10T04:23:21.819Z,768
2017-05-10T04:24:21.805Z,792
2017-05-10T04:25:21.780Z,800
2017-05-10T04:26:21.759Z,816
2017-05-10T04:27:21.737Z,856
2017-05-10T04:28:21.713Z,876
2017-05-10T04:29:21.395Z,892
2017-05-10T04:30:21.668Z,924
2017-05-10T04:31:21.648Z,952
2017-05-10T04:32:21.646Z,1008
2017-05-10T04:33:21.609Z,1028
2017-05-10T04:34:21.596Z,1048
2017-05-10T04:35:21.564Z,1084
2017-05-10T04:36:21.243Z,1108
2017-05-10T04:37:21.530Z,1128
2017-05-10T04:38:21.201Z,1168
2017-05-10T04:39:21.481Z,1648
2017-05-10T04:40:21.464Z,2556
2017-05-10T04:41:21.441Z,3128
2017-05-10T04:42:21.122Z,3340
2017-05-10T04:43:21.398Z,3420
2017-05-10T04:44:21.377Z,3492
2017-05-10T04:45:34.742Z,3576
2017-05-10T04:46:21.337Z,3608
2017-05-10T04:47:21.016Z,3712
2017-05-10T04:48:21.493Z,3748
2017-05-10T04:49:34.662Z,4244
2017-05-10T04:50:21.253Z,3840
2017-05-10T04:51:20.936Z,3980
2017-05-10T04:52:21.214Z,3992
2017-05-10T04:53:20.894Z,4112
2017-05-10T04:54:21.180Z,4208
2017-05-10T04:55:21.151Z,4088
2017-05-10T04:56:21.133Z,4228
2017-05-10T04:57:21.112Z,4236
2017-05-10T04:58:20.794Z,4284
2017-05-10T04:59:21.075Z,4392
2017-05-10T05:00:21.053Z,4308
2017-05-10T05:01:21.036Z,4604
2017-05-10T05:02:21.010Z,4520
2017-05-10T05:03:20.993Z,4608
2017-05-10T05:04:20.971Z,4636
2017-05-10T05:05:20.950Z,4740
2017-05-10T05:06:20.632Z,4796
2017-05-10T05:07:20.608Z,4904
2017-05-10T05:08:20.588Z,5008
2017-05-10T05:09:20.871Z,4940
2017-05-10T05:10:20.854Z,5212
2017-05-10T05:11:20.830Z,5176
2017-05-10T05:12:20.814Z,5184
2017-05-10T05:13:20.838Z,5312
2017-05-10T05:14:20.778Z,5300
2017-05-10T05:15:20.752Z,5368
2017-05-10T05:16:20.427Z,5396
2017-05-10T05:17:20.928Z,5448
2017-05-10T05:18:34.084Z,5520
2017-05-10T05:19:20.671Z,5612
2017-05-10T05:20:20.347Z,5636
2017-05-10T05:21:20.633Z,5612
2017-05-10T05:22:20.311Z,5780
2017-05-10T05:23:20.590Z,5652
2017-05-10T05:24:20.269Z,5644
2017-05-10T05:25:20.551Z,5852
2017-05-10T05:26:20.528Z,5588
2017-05-10T05:27:20.511Z,5632
2017-05-10T05:28:20.195Z,5860
2017-05-10T05:30:20.449Z,6068
2017-05-10T05:31:20.432Z,6048
2017-05-10T05:32:20.404Z,6088
2017-05-10T05:33:20.425Z,6184
2017-05-10T05:35:20.054Z,6284
2017-05-10T05:36:20.333Z,6436
2017-05-10T05:37:19.709Z,6268
2017-05-10T05:38:20.290Z,6380
2017-05-10T05:39:20.276Z,6304
2017-05-10T05:40:19.948Z,6456
2017-05-10T05:41:20.232Z,6504
2017-05-10T05:42:20.223Z,6464
2017-05-10T05:43:19.898Z,6524
2017-05-10T05:44:20.169Z,6596
2017-05-10T05:45:20.150Z,6720
2017-05-10T05:46:20.040Z,6696
2017-05-10T05:47:19.806Z,6744
2017-05-10T05:48:19.792Z,6788
2017-05-10T05:49:20.075Z,6812
2017-05-10T05:50:20.273Z,6840
2017-05-10T05:51:20.033Z,6924
2017-05-10T05:52:20.018Z,6916
2017-05-10T05:53:19.688Z,6976
2017-05-10T05:54:19.970Z,6996
2017-05-10T05:55:20.166Z,7052
2017-05-10T05:56:19.932Z,7092
2017-05-10T05:57:19.952Z,7324
2017-05-10T05:58:20.090Z,7192
2017-05-10T05:59:19.578Z,7272
2017-05-10T06:00:19.857Z,7348
2017-05-10T06:01:19.834Z,7648
2017-05-10T06:02:19.512Z,7448
2017-05-10T06:03:19.793Z,7500
2017-05-10T06:04:19.779Z,7600
2017-05-10T06:05:19.755Z,7608
2017-05-10T06:06:19.794Z,7836
2017-05-10T06:07:19.716Z,7884
2017-05-10T06:08:19.696Z,7848
2017-05-10T06:09:19.676Z,7912
2017-05-10T06:10:19.662Z,8124
2017-05-10T06:11:19.037Z,8132
2017-05-10T06:12:19.313Z,8188
2017-05-10T06:13:19.600Z,8292
2017-05-10T06:14:19.582Z,8276
2017-05-10T06:15:19.558Z,8404
2017-05-10T06:16:19.547Z,8424
2017-05-10T06:17:19.524Z,8440
2017-05-10T06:18:19.202Z,8480
2017-05-10T06:19:19.488Z,8532
2017-05-10T06:20:19.468Z,8584
2017-05-10T06:21:19.444Z,8644
2017-05-10T06:22:19.427Z,8636
2017-05-10T06:23:19.411Z,8692
2017-05-10T06:24:32.772Z,8824
2017-05-10T06:25:19.369Z,8876
2017-05-10T06:26:19.351Z,8864
2017-05-10T06:27:19.030Z,8964
2017-05-10T06:28:19.522Z,8976
2017-05-10T06:29:19.289Z,9128
2017-05-10T06:30:19.276Z,9116
2017-05-10T06:31:19.252Z,9172
2017-05-10T06:32:18.932Z,9228
2017-05-10T06:33:18.918Z,9364
2017-05-10T06:34:19.205Z,9324
2017-05-10T06:35:19.177Z,9348
2017-05-10T06:37:18.845Z,9448
2017-05-10T06:38:19.125Z,9464
2017-05-10T06:39:19.108Z,9576
2017-05-10T06:40:19.084Z,9648
2017-05-10T06:41:19.074Z,9720
2017-05-10T06:42:19.048Z,9720
2017-05-10T06:43:18.725Z,9848
2017-05-10T06:44:18.706Z,9828
2017-05-10T06:45:19.000Z,9844
2017-05-10T06:46:18.977Z,9924
2017-05-10T06:47:18.952Z,9940
2017-05-10T06:48:18.937Z,10064
2017-05-10T06:49:18.659Z,10332
2017-05-10T06:50:18.595Z,10560
2017-05-10T06:51:18.882Z,11036
2017-05-10T06:52:19.073Z,11052
2017-05-10T06:53:18.844Z,11428
2017-05-10T06:54:18.523Z,11112
2017-05-10T06:55:18.815Z,11128
2017-05-10T06:56:18.490Z,11248
2017-05-10T06:57:18.970Z,11276
2017-05-10T06:58:19.073Z,11328
2017-05-10T06:59:18.730Z,11356
2017-05-10T07:00:18.408Z,11400
2017-05-10T07:01:18.394Z,11716
2017-05-10T07:02:18.673Z,11612
2017-05-10T07:03:18.654Z,11616
2017-05-10T07:04:18.645Z,11628
2017-05-10T07:05:18.631Z,11800
2017-05-10T07:06:18.607Z,12284
2017-05-10T07:07:18.288Z,11780
2017-05-10T07:08:18.569Z,11880
2017-05-10T07:09:18.577Z,11892
2017-05-10T07:10:18.231Z,11904
2017-05-10T07:11:18.247Z,11964
2017-05-10T07:12:18.508Z,11964
2017-05-10T07:13:18.493Z,11996
2017-05-10T07:14:18.478Z,12076
2017-05-10T07:15:18.455Z,12284
2017-05-10T07:16:18.434Z,12228
2017-05-10T07:17:18.112Z,12272
2017-05-10T07:18:18.091Z,12304
2017-05-10T07:19:18.379Z,12312
2017-05-10T07:20:18.362Z,12360
2017-05-10T07:21:18.343Z,12408
2017-05-10T07:22:18.022Z,12484
2017-05-10T07:23:18.006Z,12572
2017-05-10T07:24:18.302Z,12524
2017-05-10T07:25:18.273Z,12568
2017-05-10T07:26:18.166Z,12624
2017-05-10T07:27:17.953Z,12668
2017-05-10T07:28:17.924Z,12696
2017-05-10T07:29:18.216Z,12724
2017-05-10T07:30:18.397Z,12768
2017-05-10T07:31:17.878Z,12812
2017-05-10T07:32:17.859Z,12908
2017-05-10T07:33:17.843Z,12956
2017-05-10T07:34:17.822Z,13000
2017-05-10T07:35:17.810Z,13056
2017-05-10T07:36:17.791Z,13132
2017-05-10T07:37:18.082Z,13164
2017-05-10T07:38:18.059Z,13220
2017-05-10T07:39:18.050Z,13260
2017-05-10T07:40:18.036Z,13332
2017-05-10T07:41:17.705Z,13392
2017-05-10T07:42:17.697Z,13448
2017-05-10T07:43:17.673Z,13492
2017-05-10T07:44:17.968Z,13528
2017-05-10T07:45:17.947Z,13564
2017-05-10T07:46:17.929Z,13616
2017-05-10T07:47:17.929Z,13668
2017-05-10T07:48:17.911Z,13736
2017-05-10T07:49:17.884Z,13824
2017-05-10T07:50:17.873Z,13888
2017-05-10T07:51:17.850Z,13940
2017-05-10T07:52:17.842Z,13984
2017-05-10T07:53:17.827Z,14052
2017-05-10T07:54:17.807Z,14104
2017-05-10T07:55:17.797Z,14140
2017-05-10T07:56:17.467Z,14200
2017-05-10T07:57:17.452Z,14252
2017-05-10T07:58:17.761Z,14320
2017-05-10T07:59:32.337Z,14396
2017-05-10T08:00:17.710Z,14436
2017-05-10T08:01:17.392Z,14472
2017-05-10T08:02:17.386Z,14532
2017-05-10T08:03:17.658Z,14580
2017-05-10T08:04:17.339Z,14636
2017-05-10T08:05:32.238Z,14700
2017-05-10T08:06:17.609Z,14724
2017-05-10T08:07:32.206Z,14804
2017-05-10T08:11:03.874Z,14992
2017-05-10T08:12:03.859Z,15056
2017-05-10T08:19:58.640Z,15424
2017-05-10T08:20:58.615Z,15484
2017-05-10T08:21:58.597Z,15540
2017-05-10T08:22:58.586Z,15604
2017-05-10T08:23:58.570Z,15660
2017-05-10T08:24:58.253Z,15724
2017-05-10T08:25:58.540Z,15764
2017-05-10T08:26:58.524Z,15824
2017-05-10T08:27:58.510Z,15880
2017-05-10T08:28:58.492Z,15932
2017-05-10T08:29:58.485Z,15984
2017-05-10T08:30:58.455Z,16048
2017-05-10T08:31:58.450Z,16120
2017-05-10T08:32:58.441Z,16180
2017-05-10T08:33:58.123Z,16236
2017-05-10T08:34:58.409Z,16320
2017-05-10T08:35:58.388Z,16396
2017-05-10T08:36:58.384Z,16460
2017-05-10T08:37:58.364Z,16516
2017-05-10T08:38:58.040Z,16684
2017-05-10T08:39:58.327Z,17084
2017-05-10T08:40:58.012Z,17168
2017-05-10T08:41:58.300Z,17228
2017-05-10T08:42:58.277Z,17356
2017-05-10T08:43:58.263Z,17352
2017-05-10T08:44:58.250Z,17452
2017-05-10T08:45:58.232Z,17548
2017-05-10T08:46:58.224Z,17608
2017-05-10T08:47:58.212Z,17668
2017-05-10T08:48:58.221Z,17760
2017-05-10T08:49:58.173Z,18048
2017-05-10T08:50:57.852Z,18144
2017-05-10T08:51:58.138Z,18240
2017-05-10T08:52:58.122Z,18272
2017-05-10T08:53:58.108Z,18368
2017-05-10T08:54:58.091Z,18432
2017-05-10T08:55:58.074Z,18528
2017-05-10T08:56:58.060Z,18624
2017-05-10T08:57:58.039Z,18688
2017-05-10T08:58:58.026Z,18752
2017-05-10T08:59:58.014Z,18848
2017-05-10T09:00:57.995Z,18944
2017-05-10T09:01:57.974Z,19040
2017-05-10T09:02:57.964Z,19136
2017-05-10T09:03:57.951Z,19168
2017-05-10T09:04:57.946Z,19264
2017-05-10T09:05:57.922Z,19360
2017-05-10T09:06:57.909Z,19392
2017-05-10T09:07:57.889Z,19552
2017-05-10T09:08:57.571Z,19744
2017-05-10T09:09:57.863Z,19712
2017-05-10T09:10:57.848Z,19776
2017-05-10T09:11:57.830Z,19840
2017-05-10T09:12:57.865Z,19968
2017-05-10T09:13:57.801Z,20096
2017-05-10T09:14:57.787Z,20096
2017-05-10T09:15:57.770Z,20192
2017-05-10T09:16:57.755Z,20224
2017-05-10T09:17:57.442Z,20320
2017-05-10T09:18:57.729Z,20416
2017-05-10T09:19:57.714Z,20512
2017-05-10T09:20:57.697Z,20576
2017-05-10T09:21:57.681Z,20864
2017-05-10T09:22:57.668Z,20864
2017-05-10T09:23:57.651Z,20928
2017-05-10T09:24:57.657Z,21024
2017-05-10T09:25:57.637Z,21120
2017-05-10T09:26:57.654Z,21184
2017-05-10T09:27:57.598Z,21280
2017-05-10T09:28:57.585Z,21376
2017-05-10T09:29:57.571Z,21440
2017-05-10T09:30:57.552Z,21568
2017-05-10T09:31:57.543Z,21632
2017-05-10T09:32:57.521Z,21728
2017-05-10T09:33:57.518Z,21792
2017-05-10T09:34:57.491Z,21856
2017-05-10T09:35:57.478Z,21952
2017-05-10T09:36:57.464Z,22016
2017-05-10T09:37:57.451Z,22112
2017-05-10T09:38:57.452Z,22176
2017-05-10T09:39:57.434Z,22272
2017-05-10T09:40:57.410Z,22400
2017-05-10T09:41:57.094Z,22464
2017-05-10T09:42:57.380Z,22528
2017-05-10T09:43:57.384Z,22656
2017-05-10T09:44:57.355Z,22720
2017-05-10T09:45:57.341Z,22784
2017-05-10T09:46:57.354Z,22912
2017-05-10T09:47:57.313Z,23008
2017-05-10T09:48:57.337Z,23136
2017-05-10T09:49:57.301Z,23200
2017-05-10T09:50:57.280Z,23296
2017-05-10T09:51:57.265Z,23392
2017-05-10T09:52:57.253Z,23456
2017-05-10T09:53:57.228Z,23488
2017-05-10T09:54:57.211Z,23648
2017-05-10T09:55:57.207Z,23712
2017-05-10T09:56:57.192Z,23808
2017-05-10T09:57:57.172Z,23936
2017-05-10T09:58:57.172Z,24000
2017-05-10T09:59:56.849Z,24096
2017-05-10T10:00:57.135Z,24192
2017-05-10T10:01:57.118Z,24256
2017-05-10T10:02:57.108Z,24320
2017-05-10T10:03:57.098Z,24448
2017-05-10T10:04:57.095Z,24512
2017-05-10T10:05:57.070Z,24640
2017-05-10T10:06:57.059Z,24704
2017-05-10T10:07:57.044Z,24800
2017-05-10T10:08:57.040Z,24896
2017-05-10T10:09:57.023Z,24992
2017-05-10T10:10:57.015Z,25056
2017-05-10T10:11:57.002Z,25120
2017-05-10T10:12:56.983Z,25248
2017-05-10T10:13:56.998Z,25344
2017-05-10T10:14:56.964Z,25440
2017-05-10T10:15:56.953Z,25536
2017-05-10T10:16:56.982Z,25632
2017-05-10T10:17:56.931Z,25728
2017-05-10T10:18:56.909Z,25824
2017-05-10T10:19:56.903Z,25920
2017-05-10T10:20:56.892Z,26048
2017-05-10T10:21:56.883Z,26112
2017-05-10T10:22:56.865Z,26240
2017-05-10T10:23:56.857Z,26336
2017-05-10T10:24:56.851Z,26464
2017-05-10T10:25:56.833Z,26528
2017-05-10T10:26:56.825Z,26624
2017-05-10T10:27:56.808Z,26752
2017-05-10T10:28:56.810Z,26848
2017-05-10T10:29:56.789Z,26944
2017-05-10T10:30:56.778Z,27072
2017-05-10T10:31:56.768Z,27168
2017-05-10T10:32:56.758Z,27328
2017-05-10T10:33:56.747Z,27456
2017-05-10T10:34:56.465Z,27520
2017-05-10T10:35:56.721Z,27648
2017-05-10T10:36:56.716Z,27808
2017-05-10T10:37:56.704Z,27904
2017-05-10T10:38:56.693Z,28032
2017-05-10T10:39:56.678Z,28128
2017-05-10T10:40:56.668Z,28256
2017-05-10T10:41:56.661Z,28352
2017-05-10T10:42:56.344Z,28512
2017-05-10T10:43:56.641Z,28640
2017-05-10T10:44:56.627Z,28800
2017-05-10T10:45:56.612Z,28864
2017-05-10T10:46:56.648Z,29024
2017-05-10T10:47:56.288Z,28896
2017-05-10T10:48:56.280Z,29024
2017-05-10T10:49:56.260Z,29184
2017-05-10T10:50:56.602Z,29280
2017-05-10T10:51:56.545Z,29408
2017-05-10T10:52:56.536Z,29504
2017-05-10T10:53:56.522Z,29632
2017-05-10T10:54:56.517Z,29760
2017-05-10T10:55:56.505Z,29920
2017-05-10T10:56:56.495Z,30016
2017-05-10T10:57:56.475Z,30176
2017-05-10T10:58:56.468Z,30304
2017-05-10T10:59:56.453Z,30464
2017-05-10T11:00:56.443Z,30560
2017-05-10T11:01:56.429Z,30688
2017-05-10T11:02:56.417Z,30784
2017-05-10T11:03:56.401Z,30944
2017-05-10T11:04:56.088Z,31104
2017-05-10T11:05:56.378Z,31200
2017-05-10T11:06:56.372Z,31360
2017-05-10T11:07:56.052Z,31488
2017-05-10T11:08:56.341Z,31584
2017-05-10T11:09:56.332Z,31744
2017-05-10T11:10:56.309Z,31840
2017-05-10T11:11:56.300Z,31936
2017-05-10T11:12:56.289Z,32064
2017-05-10T11:13:56.279Z,32224
2017-05-10T11:14:56.267Z,32352
2017-05-10T11:15:56.247Z,32512
2017-05-10T11:16:56.240Z,32672
2017-05-10T11:17:56.228Z,32832
2017-05-10T11:18:56.216Z,32992
2017-05-10T11:19:55.906Z,33152
2017-05-10T11:20:56.197Z,33280
2017-05-10T11:21:56.184Z,33440
2017-05-10T11:22:56.170Z,33600
2017-05-10T11:23:56.160Z,33792
2017-05-10T11:24:56.150Z,33920
2017-05-10T11:25:56.138Z,34048
2017-05-10T11:26:56.135Z,34208
2017-05-10T11:27:55.811Z,34336
2017-05-10T11:28:56.105Z,34496
2017-05-10T11:29:56.089Z,34624
2017-05-10T11:30:56.078Z,34752
2017-05-10T11:31:56.072Z,34944
2017-05-10T11:32:55.752Z,35072
2017-05-10T11:33:55.736Z,35232
2017-05-10T11:34:56.028Z,35392
2017-05-10T11:35:55.716Z,35584
2017-05-10T11:36:55.702Z,35744
2017-05-10T11:37:55.689Z,35904
2017-05-10T11:38:55.979Z,36064
2017-05-10T11:39:55.662Z,36256
2017-05-10T11:40:55.952Z,36416
2017-05-10T11:41:55.640Z,36544
2017-05-10T11:42:55.624Z,36704
2017-05-10T11:43:55.911Z,36896
2017-05-10T11:44:55.599Z,37024
2017-05-10T11:45:55.588Z,37216
2017-05-10T11:46:55.569Z,37504
2017-05-10T11:47:55.863Z,37760
2017-05-10T11:48:55.546Z,37984
2017-05-10T11:49:55.836Z,37984
2017-05-10T11:50:55.875Z,38080
2017-05-10T11:51:55.508Z,38144
2017-05-10T11:52:55.494Z,38400
2017-05-10T11:53:55.489Z,38624
2017-05-10T11:54:55.771Z,38784
2017-05-10T11:55:55.789Z,38944
2017-05-10T11:56:55.746Z,39136
2017-05-10T11:57:55.729Z,39296
2017-05-10T11:58:55.720Z,39488
2017-05-10T11:59:55.709Z,39648
2017-05-10T12:00:55.701Z,39936
2017-05-10T12:01:55.684Z,40128
2017-05-10T12:02:55.672Z,40448
2017-05-10T12:03:55.656Z,40640
2017-05-10T12:04:55.645Z,40832
2017-05-10T12:05:55.632Z,41056
2017-05-10T12:06:55.628Z,41312
2017-05-10T12:07:55.610Z,41536
2017-05-10T12:08:55.594Z,41824
2017-05-10T12:09:55.582Z,42144
2017-05-10T12:10:55.570Z,42400
2017-05-10T12:11:55.568Z,42656
2017-05-10T12:12:55.551Z,42912
2017-05-10T12:13:55.541Z,43136
2017-05-10T12:14:55.522Z,43424
2017-05-10T12:15:55.508Z,43712
2017-05-10T12:16:55.496Z,43936
2017-05-10T12:17:55.190Z,44160
2017-05-10T12:18:55.469Z,44384
2017-05-10T12:19:55.462Z,44576
2017-05-10T12:20:55.448Z,44864
2017-05-10T12:21:55.436Z,45056
2017-05-10T12:22:55.422Z,45280
2017-05-10T12:23:55.411Z,45600
2017-05-10T12:24:55.096Z,45984
2017-05-10T12:25:55.387Z,46272
2017-05-10T12:26:55.377Z,46624
2017-05-10T12:27:55.368Z,46944
2017-05-10T12:28:55.354Z,47360
2017-05-10T12:29:55.350Z,47840
2017-05-10T12:30:55.336Z,48128
2017-05-10T12:31:55.324Z,48640
2017-05-10T12:32:55.305Z,49024
2017-05-10T12:33:55.296Z,49472
2017-05-10T12:34:55.282Z,49856
2017-05-10T12:35:55.274Z,50176
2017-05-10T12:36:55.268Z,50496
2017-05-10T12:37:54.950Z,50848
2017-05-10T12:38:55.242Z,51296
2017-05-10T12:39:55.243Z,51712
2017-05-10T12:40:54.622Z,52000
2017-05-10T12:41:55.208Z,52416
2017-05-10T12:42:55.191Z,52736
2017-05-10T12:43:54.891Z,53216
2017-05-10T12:44:55.172Z,53696
2017-05-10T12:45:55.164Z,54080
2017-05-10T12:46:55.156Z,54592
2017-05-10T12:47:55.141Z,55008
2017-05-10T12:48:55.132Z,55776
2017-05-10T12:49:55.123Z,56000
2017-05-10T12:50:54.805Z,56512
2017-05-10T12:51:55.102Z,57056
2017-05-10T12:52:55.089Z,57504
2017-05-10T12:53:55.081Z,57984
2017-05-10T12:54:55.069Z,58464
2017-05-10T12:55:55.061Z,58848
2017-05-10T12:56:55.046Z,59360
2017-05-10T12:57:55.042Z,59776
2017-05-10T12:58:55.037Z,60160
2017-05-10T12:59:54.716Z,60544
2017-05-10T13:00:55.001Z,60960
2017-05-10T13:01:55.006Z,61440
2017-05-10T13:02:54.980Z,61824
2017-05-10T13:03:54.682Z,62272
2017-05-10T13:04:54.968Z,62784
2017-05-10T13:05:54.947Z,63264
2017-05-10T13:06:54.941Z,63648
2017-05-10T13:07:54.923Z,63872
2017-05-10T13:08:54.916Z,64224
2017-05-10T13:09:54.909Z,64576
2017-05-10T13:10:54.895Z,65024
2017-05-10T13:11:54.883Z,65312
2017-05-10T13:12:54.872Z,65632
2017-05-10T13:13:54.557Z,65984
2017-05-10T13:14:54.843Z,66176
2017-05-10T13:15:54.826Z,66624
2017-05-10T13:16:54.811Z,66848
2017-05-10T13:17:54.812Z,67104
2017-05-10T13:18:54.787Z,67520
2017-05-10T13:19:54.780Z,67936
2017-05-10T13:20:54.766Z,68192
2017-05-10T13:21:54.453Z,68608
2017-05-10T13:22:54.740Z,68992
2017-05-10T13:23:54.726Z,69248
2017-05-10T13:24:54.724Z,69568
2017-05-10T13:25:54.709Z,70144
2017-05-10T13:26:54.095Z,70656
2017-05-10T13:27:54.692Z,71200
2017-05-10T13:28:54.673Z,71552
2017-05-10T13:29:54.661Z,71872
2017-05-10T13:30:54.653Z,72224
2017-05-10T13:31:54.635Z,72224
2017-05-10T13:32:54.663Z,72864
2017-05-10T13:33:54.615Z,72576
2017-05-10T13:34:54.606Z,72544
2017-05-10T13:35:54.598Z,72768
2017-05-10T13:36:54.582Z,72608
2017-05-10T13:37:54.572Z,72992
2017-05-10T13:38:54.563Z,73024
2017-05-10T13:39:54.551Z,72896
2017-05-10T13:40:54.534Z,72768
2017-05-10T13:41:54.526Z,73120
2017-05-10T13:42:54.520Z,73120
2017-05-10T13:43:54.508Z,72800
2017-05-10T13:44:54.495Z,72640
2017-05-10T13:45:54.480Z,72064
2017-05-10T13:46:54.166Z,71328
2017-05-10T13:47:54.459Z,70912
2017-05-10T13:48:54.454Z,69408
2017-05-10T13:49:54.437Z,68448
2017-05-10T13:50:54.429Z,68448
2017-05-10T13:51:54.415Z,67424
2017-05-10T13:52:54.408Z,66240
2017-05-10T13:53:54.393Z,64576
2017-05-10T13:54:54.379Z,65088
2017-05-10T13:55:54.067Z,64032
2017-05-10T13:56:54.359Z,61248
2017-05-10T13:57:54.349Z,62656
2017-05-10T13:58:54.338Z,61536
2017-05-10T13:59:54.328Z,65760
2017-05-10T14:00:54.315Z,67968
2017-05-10T14:01:54.298Z,76000
2017-05-10T14:02:54.295Z,87968
2017-05-10T14:03:54.283Z,74848
2017-05-10T14:04:54.266Z,95264
2017-05-10T14:05:54.260Z,131424
2017-05-10T14:06:54.244Z,140672
2017-05-10T14:07:54.236Z,131392
2017-05-10T14:08:54.224Z,130112
2017-05-10T14:09:54.209Z,124320
2017-05-10T14:10:54.204Z,116544
2017-05-10T14:11:54.187Z,114528
2017-05-10T14:12:54.174Z,112128
2017-05-10T14:13:54.165Z,115232
2017-05-10T14:14:54.154Z,126208
2017-05-10T14:15:54.147Z,132960
2017-05-10T14:16:54.130Z,120224
2017-05-10T14:17:54.115Z,98624
2017-05-10T14:18:54.148Z,77024
2017-05-10T14:19:54.104Z,64064
2017-05-10T14:20:54.082Z,54240
2017-05-10T14:21:54.074Z,54400
2017-05-10T14:22:54.053Z,76864
2017-05-10T14:23:54.053Z,106592
2017-05-10T14:24:53.734Z,131488
2017-05-10T14:25:54.026Z,133088